Oslo Airport, Gardermoen

ENGM · Viken, Norway

METAR history ENGM · Oslo Airport, Gardermoen

Below you see METARs of the last few days. Select a year to browse through older METARs, from the year 2007 onwards.

April 19, 2024

Time Code Weather Temp. Visibility Ceiling Wind METAR/SPECI
16:20
V
4 °C 10 km+ 6,100 ft Var Var 3 kt METAR ENGM 191420Z VRB03KT 9999 FEW046 BKN061 04/M06 Q1009 NOSIG
15:50
V
4 °C 10 km+ - 140° 140° 6 kt METAR ENGM 191350Z 14006KT 020V180 CAVOK 04/M06 Q1009 NOSIG
15:20
V
4 °C 10 km+ 5,300 ft 120° 120° 7 kt METAR ENGM 191320Z 12007KT 080V180 9999 FEW035 BKN053 04/M05 Q1009 NOSIG
14:50
V
4 °C 10 km+ 5,200 ft 100° 100° 8 kt METAR ENGM 191250Z 10008KT 070V140 9999 FEW037 BKN052 04/M06 Q1009 NOSIG
14:20
V
4 °C 10 km+ 5,100 ft 120° 120° 7 kt METAR ENGM 191220Z 12007KT 040V190 9999 FEW034 BKN051 04/M05 Q1009 NOSIG
13:50
V
4 °C 10 km+ 5,000 ft 090° 090° 8 kt METAR ENGM 191150Z 09008KT 050V130 9999 FEW034 BKN050 04/M06 Q1009 NOSIG
13:20
V
3 °C 10 km+ 4,800 ft 120° 120° 7 kt METAR ENGM 191120Z 12007KT 090V160 9999 FEW032 BKN048 03/M05 Q1009 NOSIG
12:50
V
3 °C 10 km+ 4,300 ft 100° 100° 6 kt METAR ENGM 191050Z 10006KT 060V160 9999 SCT027 BKN043 03/M05 Q1009 NOSIG
12:20
M
3 °C 10 km+ 2,700 ft 090° 090° 7 kt METAR ENGM 191020Z 09007KT 060V130 9999 BKN027 03/M05 Q1009 NOSIG
11:50
M
3 °C 10 km+ 2,500 ft 110° 110° 7 kt METAR ENGM 190950Z 11007KT 060V140 9999 BKN025 03/M05 Q1009 NOSIG
11:20
V
2 °C 10 km+ 3,100 ft 080° 080° 7 kt METAR ENGM 190920Z 08007KT 050V120 9999 BKN031 02/M05 Q1009 NOSIG
10:50
M
2 °C 10 km+ 2,500 ft 130° 130° 8 kt METAR ENGM 190850Z 13008KT 080V160 9999 BKN025 02/M05 Q1009 NOSIG
10:20
M
3 °C 10 km+ 2,000 ft 080° 080° 9 kt METAR ENGM 190820Z 08009KT 020V160 9999 BKN020 03/M03 Q1009 NOSIG
09:50
M
1 °C 10 km+ 2,200 ft 330° 330° 3 kt METAR ENGM 190750Z 33003KT 260V030 9999 FEW017 BKN022 01/M02 Q1009
09:20
V
1 °C 10 km+ 4,100 ft 340° 340° 4 kt METAR ENGM 190720Z 34004KT 300V050 9999 SCT015 BKN041 01/M02 Q1009 NOSIG
08:50
V
0 °C 10 km+ 9,400 ft 030° 030° 3 kt METAR ENGM 190650Z 03003KT 340V090 9999 FEW012 BKN094 00/M03 Q1009 NOSIG
08:20
V
0 °C 10 km+ 8,800 ft 080° 080° 4 kt METAR ENGM 190620Z 08004KT 020V170 9999 SCT010 BKN088 M00/M03 Q1009 NOSIG
07:50
M
0 °C 10 km+ 1,000 ft Var Var 2 kt METAR ENGM 190550Z VRB02KT 9999 BKN010 M00/M03 Q1009 TEMPO SCT012 BKN040
07:20
V
0 °C 10 km+ 9,300 ft 100° 100° 4 kt METAR ENGM 190520Z 10004KT 060V140 9999 FEW009 SCT039 BKN093 M00/M03 Q1009 NOSIG
06:50
V
0 °C 10 km+ 7,400 ft 070° 070° 4 kt METAR ENGM 190450Z 07004KT 050V120 9999 SCT038 BKN074 M00/M03 Q1009 NOSIG
06:20
V
0 °C 10 km+ 7,300 ft 030° 030° 3 kt METAR ENGM 190420Z 03003KT 9999 FEW035 OVC073 M00/M02 Q1008 NOSIG
05:50
V
0 °C 10 km+ 6,700 ft 060° 060° 2 kt METAR ENGM 190350Z 06002KT 9999 FEW017 BKN067 M00/M02 Q1008 NOSIG
05:20
V
0 °C 10 km+ 6,700 ft 070° 070° 3 kt METAR ENGM 190320Z 07003KT 9999 FEW017 BKN067 M00/M02 Q1008
04:50
V
0 °C 10 km+ 5,500 ft 080° 080° 3 kt METAR ENGM 190250Z 08003KT 9999 FEW017 BKN055 M00/M02 Q1008
04:20
V
0 °C 10 km+ 4,800 ft 050° 050° 3 kt METAR ENGM 190220Z 05003KT 9999 -SN FEW017 BKN048 M00/M01 Q1009
03:50
V
0 °C 10 km+ 6,000 ft 030° 030° 2 kt METAR ENGM 190150Z 03002KT 9999 -SN SCT015 BKN060 M00/M01 Q1009
03:20
V
0 °C 10 km+ 6,000 ft Var Var 2 kt METAR ENGM 190120Z VRB02KT 9999 -SN SCT015 BKN060 M00/M01 Q1009
02:50
V
0 °C 10 km+ 5,900 ft 340° 340° 3 kt METAR ENGM 190050Z 34003KT 9999 -SN FEW005 BKN059 M00/M01 Q1009
02:20
M
0 °C 10 km+ 1,600 ft 330° 330° 3 kt METAR ENGM 190020Z 33003KT 9999 -SN FEW009 BKN016 M00/M01 Q1009
01:50
V
0 °C 10 km+ 5,300 ft 330° 330° 2 kt METAR ENGM 182350Z 33002KT 9999 -SN FEW009 SCT017 BKN053 00/M01 Q1009
01:20
V
0 °C 10 km+ - 240° 240° 4 kt METAR ENGM 182320Z 24004KT 220V280 9999 -RASN FEW005 SCT036 00/M01 Q1010
00:50
M
0 °C 10 km+ 2,800 ft 220° 220° 6 kt METAR ENGM 182250Z 22006KT 9999 -SN SCT004 BKN028 00/M01 Q1010
00:20
V
1 °C 10 km+ 4,800 ft 230° 230° 6 kt METAR ENGM 182220Z 23006KT 9999 -RADZ SCT005 BKN048 01/M01 Q1010

April 18, 2024

Time Code Weather Temp. Visibility Ceiling Wind METAR/SPECI
23:50
V
2 °C 10 km+ 4,400 ft 160° 160° 7 kt METAR ENGM 182150Z 16007KT 9999 FEW015 BKN044 02/M01 Q1010
23:20
V
2 °C 10 km+ 4,000 ft 150° 150° 7 kt METAR ENGM 182120Z 15007KT 9999 FEW016 BKN040 02/M02 Q1010
22:50
V
2 °C 10 km+ 5,000 ft 180° 180° 9 kt METAR ENGM 182050Z 18009KT 9999 SCT037 BKN050 02/M03 Q1010 NOSIG
22:20
V
2 °C 10 km+ - 180° 180° 10 kt METAR ENGM 182020Z 18010KT CAVOK 02/M03 Q1010 NOSIG
21:50
V
3 °C 10 km+ - 160° 160° 11 kt METAR ENGM 181950Z 16011KT CAVOK 03/M03 Q1010 NOSIG
21:20
V
3 °C 10 km+ - 150° 150° 9 kt METAR ENGM 181920Z 15009KT CAVOK 03/M04 Q1010 NOSIG
20:50
V
5 °C 10 km+ - 130° 130° 5 kt METAR ENGM 181850Z 13005KT CAVOK 05/M07 Q1010 NOSIG
20:20
V
5 °C 10 km+ - 130° 130° 6 kt METAR ENGM 181820Z 13006KT 100V170 CAVOK 05/M08 Q1010 NOSIG
19:50
V
5 °C 10 km+ - 120° 120° 6 kt METAR ENGM 181750Z 12006KT CAVOK 05/M08 Q1010 NOSIG
19:20
V
5 °C 10 km+ - 110° 110° 5 kt METAR ENGM 181720Z 11005KT 080V190 CAVOK 05/M08 Q1010 NOSIG
18:50
V
5 °C 10 km+ - 110° 110° 6 kt METAR ENGM 181650Z 11006KT 080V140 CAVOK 05/M08 Q1010 NOSIG
18:20
V
5 °C 10 km+ - 090° 090° 5 kt METAR ENGM 181620Z 09005KT 070V140 CAVOK 05/M08 Q1011 NOSIG
17:50
V
5 °C 10 km+ - 140° 140° 5 kt METAR ENGM 181550Z 14005KT 100V180 9999 VCSH NSC 05/M08 Q1011 NOSIG
17:20
V
5 °C 10 km+ - Var Var 3 kt METAR ENGM 181520Z VRB03KT 9999 VCSH NSC 05/M07 Q1011 NOSIG
16:50
V
5 °C 10 km+ 5,500 ft Var Var 3 kt METAR ENGM 181450Z VRB03KT 9999 VCSH FEW032 BKN055 05/M07 Q1011 NOSIG
16:20
V
5 °C 10 km+ 5,600 ft Var Var 3 kt METAR ENGM 181420Z VRB03KT 9999 VCSH FEW030 BKN056 05/M08 Q1012 NOSIG
15:50
V
5 °C 10 km+ 5,600 ft 100° 100° 6 kt METAR ENGM 181350Z 10006KT 060V140 9999 VCSH FEW029 BKN056 05/M08 Q1012 NOSIG
15:20
V
6 °C 10 km+ - 100° 100° 4 kt METAR ENGM 181320Z 10004KT 050V130 CAVOK 06/M08 Q1012 NOSIG
14:50
V
6 °C 10 km+ - Var Var 4 kt METAR ENGM 181250Z VRB04KT CAVOK 06/M09 Q1012 NOSIG
14:20
V
6 °C 10 km+ - 190° 190° 3 kt METAR ENGM 181220Z 19003KT 120V290 CAVOK 06/M08 Q1013 NOSIG
13:50
V
6 °C 10 km+ - Var Var 4 kt METAR ENGM 181150Z VRB04KT CAVOK 06/M08 Q1013 NOSIG
13:20
V
5 °C 10 km+ 6,800 ft Var Var 3 kt METAR ENGM 181120Z VRB03KT 9999 FEW048 BKN068 05/M08 Q1013 NOSIG
12:50
V
5 °C 10 km+ - 140° 140° 3 kt METAR ENGM 181050Z 14003KT 050V190 CAVOK 05/M08 Q1013 NOSIG
12:20
V
5 °C 10 km+ 6,100 ft 200° 200° 3 kt METAR ENGM 181020Z 20003KT 150V240 9999 SCT047 BKN061 05/M08 Q1013 NOSIG
11:50
V
4 °C 10 km+ - 110° 110° 3 kt METAR ENGM 180950Z 11003KT 010V180 CAVOK 04/M08 Q1014 NOSIG
11:20
V
5 °C 10 km+ - Var Var 4 kt METAR ENGM 180920Z VRB04KT CAVOK 05/M09 Q1014 NOSIG
10:50
V
5 °C 10 km+ - Var Var 5 kt METAR ENGM 180850Z VRB05KT 9999 FEW041 SCT057 05/M07 Q1014 NOSIG
10:20
V
4 °C 10 km+ - 090° 090° 6 kt METAR ENGM 180820Z 09006KT 9999 FEW040 04/M07 Q1014 NOSIG
09:50
V
4 °C 10 km+ - Var Var 3 kt METAR ENGM 180750Z VRB03KT 9999 FEW040 04/M06 Q1014
09:20
V
3 °C 10 km+ - 040° 040° 5 kt METAR ENGM 180720Z 04005KT 010V070 CAVOK 03/M06 Q1014 NOSIG
08:50
V
3 °C 10 km+ - 030° 030° 8 kt METAR ENGM 180650Z 03008KT CAVOK 03/M05 Q1014 NOSIG
08:20
V
2 °C 10 km+ - 030° 030° 7 kt METAR ENGM 180620Z 03007KT CAVOK 02/M05 Q1014 NOSIG
07:50
V
0 °C 10 km+ - 020° 020° 6 kt METAR ENGM 180550Z 02006KT CAVOK M00/M05 Q1014 NOSIG
07:20
V
-1 °C 10 km+ - 030° 030° 5 kt METAR ENGM 180520Z 03005KT CAVOK M01/M05 Q1014 NOSIG
06:50
V
-2 °C 10 km+ - 030° 030° 4 kt METAR ENGM 180450Z 03004KT CAVOK M02/M06 Q1014 NOSIG
06:20
V
-3 °C 10 km+ - 040° 040° 4 kt METAR ENGM 180420Z 04004KT CAVOK M03/M07 Q1014 NOSIG
05:50
V
-2 °C 10 km+ - 350° 350° 4 kt METAR ENGM 180350Z 35004KT CAVOK M02/M07 Q1014 NOSIG
05:20
V
-2 °C 10 km+ - 330° 330° 3 kt METAR ENGM 180320Z 33003KT CAVOK M02/M07 Q1014
04:50
V
-2 °C 10 km+ - Var Var 2 kt METAR ENGM 180250Z VRB02KT CAVOK M02/M08 Q1014
04:20
V
-1 °C 10 km+ - Var Var 2 kt METAR ENGM 180220Z VRB02KT CAVOK M01/M08 Q1014
03:50
V
-1 °C 10 km+ - Var Var 1 kt METAR ENGM 180150Z VRB01KT CAVOK M01/M08 Q1014
03:20
V
-1 °C 10 km+ - 310° 310° 3 kt METAR ENGM 180120Z 31003KT CAVOK M01/M08 Q1014
02:50
V
-3 °C 10 km+ - 010° 010° 7 kt METAR ENGM 180050Z 01007KT CAVOK M03/M07 Q1014
02:20
V
-3 °C 10 km+ - 020° 020° 8 kt METAR ENGM 180020Z 02008KT CAVOK M03/M07 Q1014
01:50
V
-2 °C 10 km+ - 360° 360° 6 kt METAR ENGM 172350Z 36006KT CAVOK M02/M07 Q1013
01:20
V
-2 °C 10 km+ - 020° 020° 6 kt METAR ENGM 172320Z 02006KT CAVOK M02/M08 Q1013
00:50
V
0 °C 10 km+ - 360° 360° 7 kt METAR ENGM 172250Z 36007KT CAVOK M00/M07 Q1013
00:20
V
0 °C 10 km+ - 010° 010° 3 kt METAR ENGM 172220Z 01003KT CAVOK 00/M08 Q1013

April 17, 2024

Time Code Weather Temp. Visibility Ceiling Wind METAR/SPECI
23:50
V
1 °C 10 km+ - 350° 350° 7 kt METAR ENGM 172150Z 35007KT CAVOK 01/M08 Q1013
23:20
V
1 °C 10 km+ - 360° 360° 7 kt METAR ENGM 172120Z 36007KT CAVOK 01/M09 Q1013
22:50
V
1 °C 10 km+ - 360° 360° 6 kt METAR ENGM 172050Z 36006KT CAVOK 01/M09 Q1013 NOSIG
22:20
V
2 °C 10 km+ - 350° 350° 3 kt METAR ENGM 172020Z 35003KT 310V010 CAVOK 02/M10 Q1012 NOSIG
21:50
V
2 °C 10 km+ - 350° 350° 6 kt METAR ENGM 171950Z 35006KT CAVOK 02/M09 Q1012 NOSIG
21:20
V
3 °C 10 km+ - 360° 360° 6 kt METAR ENGM 171920Z 36006KT 330V030 CAVOK 03/M10 Q1012 NOSIG
20:50
V
4 °C 10 km+ - 360° 360° 7 kt METAR ENGM 171850Z 36007KT CAVOK 04/M09 Q1011 NOSIG
20:20
V
5 °C 10 km+ - 010° 010° 10 kt METAR ENGM 171820Z 01010KT CAVOK 05/M09 Q1011 NOSIG
19:50
V
6 °C 10 km+ - 360° 360° 10 kt METAR ENGM 171750Z 36010KT CAVOK 06/M10 Q1011 NOSIG
19:20
V
6 °C 10 km+ - 010° 010° 12 kt METAR ENGM 171720Z 01012KT CAVOK 06/M10 Q1010 NOSIG
18:50
V
7 °C 10 km+ - 010° 010° 11 kt METAR ENGM 171650Z 01011KT CAVOK 07/M09 Q1010 NOSIG
18:20
V
7 °C 10 km+ - 350° 350° 8 kt METAR ENGM 171620Z 35008KT 300V010 CAVOK 07/M09 Q1010 NOSIG
17:50
V
7 °C 10 km+ - 360° 360° 12 kt METAR ENGM 171550Z 36012KT CAVOK 07/M08 Q1010 NOSIG
17:20
V
8 °C 10 km+ - 360° 360° 11 kt METAR ENGM 171520Z 36011KT 310V040 CAVOK 08/M08 Q1009 NOSIG
16:20
V
7 °C 10 km+ - 010° 010° 13 kt METAR ENGM 171420Z 01013KT 330V030 CAVOK 07/M09 Q1010 NOSIG
15:50
V
7 °C 10 km+ - 360° 360° 9 kt METAR ENGM 171350Z 36009KT 320V030 CAVOK 07/M08 Q1010 NOSIG
15:20
V
7 °C 10 km+ 8,000 ft 360° 360° 10 kt METAR ENGM 171320Z 36010KT 9999 FEW040 BKN080 07/M07 Q1010 NOSIG
14:50
V
6 °C 10 km+ 7,900 ft 360° 360° 9 kt METAR ENGM 171250Z 36009KT 330V030 9999 FEW042 BKN079 06/M07 Q1010 NOSIG
14:20
V
6 °C 10 km+ 8,000 ft 350° 350° 5 kt METAR ENGM 171220Z 35005KT 310V040 9999 SCT045 BKN080 06/M04 Q1010
13:50
V
5 °C 10 km+ 5,900 ft 020° 020° 12 kt METAR ENGM 171150Z 02012KT 9999 VCSH FEW034 BKN059 05/M03 Q1009 NOSIG
13:20
V
4 °C 10 km+ 7,000 ft 010° 010° 12 kt METAR ENGM 171120Z 01012KT 9999 VCSH FEW030 BKN070 04/M03 Q1009 NOSIG
12:50
V
5 °C 10 km+ - 020° 020° 13 kt METAR ENGM 171050Z 02013KT 9999 VCSH NSC 05/M04 Q1009 NOSIG
12:20
V
6 °C 10 km+ - 030° 030° 15 kt METAR ENGM 171020Z 03015KT 350V050 CAVOK 06/M04 Q1009 NOSIG
11:50
V
5 °C 10 km+ - 030° 030° 17 kt METAR ENGM 170950Z 03017KT CAVOK 05/M04 Q1008 NOSIG
11:20
V
5 °C 10 km+ - 020° 020° 16 kt METAR ENGM 170920Z 02016KT CAVOK 05/M04 Q1008 NOSIG
10:50
V
4 °C 10 km+ - 040° 040° 17 kt METAR ENGM 170850Z 04017KT CAVOK 04/M04 Q1008 NOSIG
10:20
V
5 °C 10 km+ - 030° 030° 20 kt METAR ENGM 170820Z 03020KT CAVOK 05/M05 Q1008 NOSIG
09:50
V
4 °C 10 km+ - 020° 020° 15 kt METAR ENGM 170750Z 02015KT CAVOK 04/M06 Q1008
09:20
V
4 °C 10 km+ - 030° 030° 15 kt METAR ENGM 170720Z 03015KT CAVOK 04/M06 Q1007 NOSIG
08:50
V
3 °C 10 km+ - 030° 030° 9 kt METAR ENGM 170650Z 03009KT CAVOK 03/M05 Q1007 NOSIG
08:20
V
1 °C 10 km+ - 030° 030° 6 kt METAR ENGM 170620Z 03006KT CAVOK 01/M04 Q1007 NOSIG
07:50
V
0 °C 10 km+ - 360° 360° 3 kt METAR ENGM 170550Z 36003KT CAVOK M00/M04 Q1007 NOSIG
Report a change